Terminal Aerodrome Forecast
Issued by NWS

Home | Current Version | Previous Version | Text Only | Print | Product List | Glossary On
Versions: 1 2 3 4 5 6 7 8 9 10 11 12 13 14 15 16 17 18 19
000
FTUS43 KIWX 240714 AAA
TAFSBN
TAF AMD
KSBN 240714Z 2407/2506 33008KT 6SM BR OVC006
     FM241400 31008KT P6SM OVC010
     FM242200 VRB04KT P6SM OVC015=

USA.gov is the U.S. government's official web portal to all federal, state and local government web resources and services.